The latest weather and runway conditions for major airports within the Toronto FIR.

CYYZ - Toronto-Lester B. Pearson International      ATIS Currently Online:  Information O
CYYZ information O weather at 2300Z , Wind 020 at 11 ,
Visibility 15 , few clouds at 17000 temperature 6 dew point -4,
Altimeter 3040 , Approach ILS runway 05 and ILS runway 06L ,
Departure runway 05 and runway 06L ,
Advise ATC that you have information O .
CYOW - Ottawa Macdonald-Cartier International
CYOW 202300Z 33015G20KT 15SM FEW065 09/M06 A3026 RMK SC2 SLP255
Suggested Runway: 32
CYTZ - Billy Bishop Toronto City
CYTZ 202300Z AUTO 35007KT 300V020 9SM CLR 07/M04 A3041 RMK SLP302
Suggested Runway: 08
CYXU - London International
CYXU 202300Z 32008KT 15SM FEW250 06/M04 A3043 RMK CI1 SLP317
Suggested Runway: 33
CYHM - John C. Munro Hamilton International
CYHM 202300Z 33008KT 12SM FEW030 FEW250 06/M03 A3040 RMK SC1CI1 SC TR CI TR SLP306
Suggested Runway: 30
CYKF - Region of Waterloo International
CYKF 202300Z AUTO 32008KT 9SM CLR 04/M03 A3041 RMK SLP311
Suggested Runway: 26
CYAM - Sault Ste. Marie
CYAM 202300Z 29008KT 15SM FEW210 SCT250 03/M05 A3042 RMK CI1CI3 SLP312
Suggested Runway: 30
CYTR - Canadian Forces Base Trenton
CYTR 202300Z 29011G18KT 15SM FEW065 FEW250 08/M03 A3033 RMK CF1CI1 CUFRA TR SLP274
Suggested Runway: 24